Terminal Aerodrome Forecast
Issued by NWS

Home | Current Version | Previous Version | Text Only | Print | Product List | Glossary On
Versions: 1 2 3 4 5 6 7 8 9 10 11 12 13 14
000
FTAK31 PANC 202119 AAA
TAFAAQ
TAF AMD
PAAQ 202119Z 2021/2118 14015KT P6SM BKN200
      TEMPO 2021/2024 14015G25KT
     FM210000 14015G25KT P6SM SCT200
     FM210700 VRB06KT P6SM SCT200=

USA.gov is the U.S. government's official web portal to all federal, state and local government web resources and services.